Time;durP1;ratioP1;P1;durP2;ratioP2;P2;SDS_P1;SDS_P2;PMS_P1;PMS_P2;Temp;Humidity;BMP_temperature;BMP_pressure;BME280_temperature;BME280_humidity;BME280_pressure;Samples;Min_cycle;Max_cycle;Signal;HPM_P1;HPM_P2
2021/05/16 00:01:11;;;;;;;2.92;2.72;;;15.10;99.90;;;;;;5053226;28;20097;-67
2021/05/16 00:03:38;;;;;;;2.72;2.53;;;15.10;99.90;;;;;;5065091;28;20020;-67
2021/05/16 00:06:04;;;;;;;3.08;2.90;;;15.00;99.90;;;;;;5057754;28;20021;-67
2021/05/16 00:08:30;;;;;;;2.78;2.60;;;15.10;99.90;;;;;;5050392;28;20045;-67
2021/05/16 00:10:56;;;;;;;3.63;2.50;;;14.90;99.90;;;;;;5059056;28;20158;-67
2021/05/16 00:13:22;;;;;;;2.60;2.50;;;15.10;99.90;;;;;;5052751;28;20043;-67
2021/05/16 00:15:48;;;;;;;2.47;2.35;;;15.10;99.90;;;;;;5062987;28;20025;-66
2021/05/16 00:18:13;;;;;;;2.40;2.30;;;15.00;99.90;;;;;;5067813;28;20056;-66
2021/05/16 00:20:39;;;;;;;2.50;2.30;;;14.90;99.90;;;;;;5060523;28;20118;-67
2021/05/16 00:23:05;;;;;;;4.18;2.70;;;14.90;99.90;;;;;;5049586;28;20470;-67
2021/05/16 00:25:35;;;;;;;2.97;2.78;;;14.80;99.90;;;;;;5061974;28;20033;-67
2021/05/16 00:28:02;;;;;;;4.25;3.40;;;14.80;99.90;;;;;;5049565;28;20026;-67
2021/05/16 00:30:28;;;;;;;3.47;3.28;;;14.80;99.90;;;;;;5060323;28;20024;-66
2021/05/16 00:32:55;;;;;;;3.30;3.10;;;14.80;99.90;;;;;;5049390;28;20021;-66
2021/05/16 00:35:23;;;;;;;3.40;3.20;;;14.80;99.90;;;;;;5061764;28;20627;-66
2021/05/16 00:37:49;;;;;;;4.07;3.83;;;14.70;99.90;;;;;;5069025;28;20029;-67
2021/05/16 00:40:16;;;;;;;3.60;3.40;;;14.80;99.90;;;;;;5062855;28;20056;-67
2021/05/16 00:42:43;;;;;;;3.60;3.38;;;14.90;99.90;;;;;;5049294;28;20028;-66
2021/05/16 00:45:12;;;;;;;4.75;4.28;;;14.80;99.90;;;;;;5060466;28;20021;-67
2021/05/16 00:47:39;;;;;;;4.20;3.80;;;14.90;99.90;;;;;;5063089;28;20028;-66
2021/05/16 00:50:09;;;;;;;3.85;3.20;;;14.80;99.90;;;;;;5062551;28;20447;-67
2021/05/16 00:52:38;;;;;;;4.68;3.88;;;14.90;99.90;;;;;;5050051;28;20009;-67
2021/05/16 00:55:06;;;;;;;3.80;3.60;;;14.90;99.90;;;;;;5052005;28;20580;-67
2021/05/16 00:57:32;;;;;;;3.58;3.33;;;15.00;99.90;;;;;;5048937;28;20036;-66
2021/05/16 01:00:00;;;;;;;4.38;4.00;;;14.90;99.90;;;;;;5057124;28;20709;-67
2021/05/16 01:02:29;;;;;;;3.88;3.67;;;14.80;99.90;;;;;;5051645;28;20025;-66
2021/05/16 01:04:54;;;;;;;3.70;3.40;;;14.90;99.90;;;;;;5057234;28;20029;-67
2021/05/16 01:07:20;;;;;;;3.88;3.58;;;14.90;99.90;;;;;;5052243;28;20025;-67
2021/05/16 01:09:46;;;;;;;4.30;3.90;;;14.80;99.90;;;;;;5059459;28;20024;-66
2021/05/16 01:12:13;;;;;;;3.90;3.45;;;14.80;99.90;;;;;;5056249;28;20096;-67
2021/05/16 01:14:43;;;;;;;3.72;3.50;;;14.70;99.90;;;;;;5057806;28;20031;-67
2021/05/16 01:17:09;;;;;;;3.45;3.25;;;14.70;99.90;;;;;;5057404;28;20032;-67
2021/05/16 01:19:35;;;;;;;4.97;3.95;;;14.80;99.90;;;;;;5064699;28;20040;-67
2021/05/16 01:22:03;;;;;;;4.18;3.88;;;14.70;99.90;;;;;;5070138;28;20028;-66
2021/05/16 01:24:29;;;;;;;3.97;3.72;;;14.90;99.90;;;;;;5066036;28;20436;-66
2021/05/16 01:26:57;;;;;;;3.75;3.55;;;14.70;99.90;;;;;;5058556;28;20071;-66
2021/05/16 01:29:23;;;;;;;3.25;3.03;;;14.70;99.90;;;;;;5055634;28;20029;-67
2021/05/16 01:31:49;;;;;;;4.10;3.65;;;14.80;99.90;;;;;;5068093;28;20051;-67
2021/05/16 01:34:16;;;;;;;3.33;3.03;;;14.70;99.90;;;;;;5065670;28;20577;-66
2021/05/16 01:36:42;;;;;;;3.45;3.25;;;14.60;99.90;;;;;;5062545;28;20049;-66
2021/05/16 01:39:11;;;;;;;4.00;3.30;;;14.60;99.90;;;;;;5066490;28;20080;-66
2021/05/16 01:41:38;;;;;;;4.00;3.55;;;14.60;99.90;;;;;;5067289;28;20017;-66
2021/05/16 01:44:05;;;;;;;3.63;3.42;;;14.60;99.90;;;;;;5067017;28;20029;-67
2021/05/16 01:46:30;;;;;;;6.30;4.03;;;14.70;99.90;;;;;;5060916;28;20483;-67
2021/05/16 01:48:56;;;;;;;3.72;3.53;;;14.60;99.90;;;;;;5054397;28;20065;-66
2021/05/16 01:51:22;;;;;;;5.18;3.70;;;14.60;99.90;;;;;;5064123;28;20412;-66
2021/05/16 01:53:49;;;;;;;3.45;3.25;;;14.60;99.90;;;;;;5069200;28;20495;-67
2021/05/16 01:56:26;;;;;;;4.43;4.15;;;14.60;99.90;;;;;;5060385;28;20064;-67
2021/05/16 01:58:54;;;;;;;6.07;4.60;;;14.50;99.90;;;;;;5054222;28;20040;-67
2021/05/16 02:01:19;;;;;;;5.07;4.50;;;14.60;99.90;;;;;;5064117;28;20029;-66
2021/05/16 02:03:46;;;;;;;4.60;4.30;;;14.50;99.90;;;;;;5067984;28;20071;-67
2021/05/16 02:06:13;;;;;;;4.15;3.83;;;14.50;99.90;;;;;;5051626;28;20036;-67
2021/05/16 02:08:40;;;;;;;4.47;4.18;;;14.50;99.90;;;;;;5053159;28;20512;-66
2021/05/16 02:11:06;;;;;;;4.13;3.88;;;14.60;99.90;;;;;;5061627;28;20032;-67
2021/05/16 02:13:35;;;;;;;5.00;4.50;;;14.50;99.90;;;;;;5069308;28;20020;-67
2021/05/16 02:16:01;;;;;;;5.03;4.63;;;14.40;99.90;;;;;;5061230;28;20108;-66
2021/05/16 02:18:26;;;;;;;5.72;4.75;;;14.50;99.90;;;;;;5051535;28;20175;-67
2021/05/16 02:20:52;;;;;;;6.38;4.35;;;14.60;99.90;;;;;;5061289;28;20075;-67
2021/05/16 02:23:18;;;;;;;4.90;4.60;;;14.50;99.90;;;;;;5070165;28;20086;-67
2021/05/16 02:25:44;;;;;;;5.65;4.70;;;14.50;99.90;;;;;;5061510;28;20561;-67
2021/05/16 02:28:09;;;;;;;5.28;4.65;;;14.40;99.90;;;;;;5051339;28;20032;-66
2021/05/16 02:30:35;;;;;;;5.40;4.90;;;14.40;99.90;;;;;;5061987;28;20029;-67
2021/05/16 02:33:01;;;;;;;6.07;5.53;;;14.60;99.90;;;;;;5068478;28;20079;-67
2021/05/16 02:35:27;;;;;;;5.22;4.82;;;14.50;99.90;;;;;;5063413;28;20063;-66
2021/05/16 02:37:52;;;;;;;5.18;4.68;;;14.40;99.90;;;;;;5050786;28;20040;-66
2021/05/16 02:40:18;;;;;;;5.85;5.35;;;14.60;99.90;;;;;;5061733;28;20032;-67
2021/05/16 02:42:44;;;;;;;7.75;5.43;;;14.50;99.90;;;;;;5065862;28;20045;-66
2021/05/16 02:45:10;;;;;;;9.52;6.10;;;14.40;99.90;;;;;;5064267;28;20107;-67
2021/05/16 02:47:36;;;;;;;6.88;5.95;;;14.40;99.90;;;;;;5049529;28;20569;-67
2021/05/16 02:50:03;;;;;;;6.05;5.45;;;14.50;99.90;;;;;;5059350;28;20108;-66
2021/05/16 02:52:29;;;;;;;5.35;4.85;;;14.50;99.90;;;;;;5064585;28;20037;-67
2021/05/16 02:54:55;;;;;;;5.72;5.03;;;14.60;99.90;;;;;;5064089;28;20035;-67
2021/05/16 02:57:21;;;;;;;5.38;4.95;;;14.60;99.90;;;;;;5053232;28;20041;-67
2021/05/16 02:59:47;;;;;;;5.40;5.00;;;14.50;99.90;;;;;;5057030;28;20028;-66
2021/05/16 03:02:15;;;;;;;6.22;5.15;;;14.50;99.90;;;;;;5069762;28;20037;-67
2021/05/16 03:04:41;;;;;;;6.05;5.45;;;14.50;99.90;;;;;;5063937;28;20087;-67
2021/05/16 03:07:06;;;;;;;5.43;5.03;;;14.40;99.90;;;;;;5048839;28;20025;-67
2021/05/16 03:09:34;;;;;;;6.22;5.45;;;14.40;99.90;;;;;;5054738;28;20025;-67
2021/05/16 03:12:01;;;;;;;6.20;5.70;;;14.60;99.90;;;;;;5069192;28;20094;-67
2021/05/16 03:14:27;;;;;;;6.85;6.10;;;14.50;99.90;;;;;;5050240;28;20024;-67
2021/05/16 03:16:54;;;;;;;8.80;6.93;;;14.40;99.90;;;;;;5062913;28;20029;-67
2021/05/16 03:19:20;;;;;;;6.05;5.55;;;14.50;99.90;;;;;;5063342;28;20040;-67
2021/05/16 03:21:46;;;;;;;6.47;5.93;;;14.40;99.90;;;;;;5069255;28;20055;-67
2021/05/16 03:24:12;;;;;;;5.55;5.15;;;14.50;99.90;;;;;;5064126;28;20025;-66
2021/05/16 03:26:38;;;;;;;6.53;5.47;;;14.40;99.90;;;;;;5058123;28;20108;-67
2021/05/16 03:29:06;;;;;;;7.25;5.57;;;14.50;99.90;;;;;;5060906;28;20447;-67
2021/05/16 03:31:31;;;;;;;7.30;6.60;;;14.50;99.90;;;;;;5057965;28;20106;-67
2021/05/16 03:33:57;;;;;;;7.80;7.00;;;14.40;99.90;;;;;;5052322;28;20082;-67
2021/05/16 03:36:23;;;;;;;6.13;5.68;;;14.40;99.90;;;;;;5058214;28;20049;-67
2021/05/16 03:38:49;;;;;;;7.00;6.40;;;14.40;99.90;;;;;;5037615;28;20635;-68
2021/05/16 03:41:14;;;;;;;8.70;6.75;;;14.40;99.90;;;;;;5057933;28;20021;-67
2021/05/16 03:43:40;;;;;;;8.73;7.00;;;14.30;99.90;;;;;;5062115;28;20513;-67
2021/05/16 03:46:06;;;;;;;7.20;6.50;;;14.30;99.90;;;;;;5058480;28;20497;-67
2021/05/16 03:48:31;;;;;;;7.40;6.68;;;14.40;99.90;;;;;;5066232;28;20024;-68
2021/05/16 03:50:57;;;;;;;9.23;7.35;;;14.40;99.90;;;;;;5060019;28;20505;-67
2021/05/16 03:53:23;;;;;;;8.52;7.75;;;14.30;99.90;;;;;;5061460;28;20463;-67
2021/05/16 03:55:48;;;;;;;8.30;7.50;;;14.30;99.90;;;;;;5059734;28;20025;-68
2021/05/16 03:58:14;;;;;;;7.78;6.78;;;14.40;99.90;;;;;;5065752;28;20408;-67
2021/05/16 04:00:40;;;;;;;8.00;7.20;;;14.20;99.90;;;;;;5055555;28;20021;-67
2021/05/16 04:03:05;;;;;;;8.20;7.10;;;14.30;99.90;;;;;;5052063;28;20086;-67
2021/05/16 04:05:31;;;;;;;9.35;7.03;;;14.40;99.90;;;;;;5056155;28;20435;-67
2021/05/16 04:07:57;;;;;;;12.32;7.85;;;14.50;99.90;;;;;;5062977;28;20245;-68
2021/05/16 04:10:23;;;;;;;10.73;8.00;;;14.30;99.90;;;;;;5063410;28;20035;-67
2021/05/16 04:12:49;;;;;;;8.60;7.60;;;14.50;99.90;;;;;;5049646;28;20028;-67
2021/05/16 04:15:15;;;;;;;9.82;8.25;;;14.30;99.90;;;;;;5059455;28;20025;-67
2021/05/16 04:17:41;;;;;;;8.73;7.65;;;14.50;99.90;;;;;;5066772;28;20045;-68
2021/05/16 04:20:08;;;;;;;9.27;8.48;;;14.40;99.90;;;;;;5062784;28;20032;-68
2021/05/16 04:22:34;;;;;;;10.32;8.48;;;14.40;99.90;;;;;;5050862;28;20029;-68
2021/05/16 04:24:59;;;;;;;10.00;7.90;;;14.40;99.90;;;;;;5061339;28;20093;-68
2021/05/16 04:27:25;;;;;;;10.77;7.68;;;14.40;99.90;;;;;;5067352;28;20032;-68
2021/05/16 04:29:51;;;;;;;8.88;7.97;;;14.30;99.90;;;;;;5065514;28;20029;-68
2021/05/16 04:32:17;;;;;;;8.93;7.20;;;14.30;99.90;;;;;;5067860;28;20035;-68
2021/05/16 04:34:42;;;;;;;9.23;7.15;;;14.40;99.90;;;;;;5062748;28;20059;-68
2021/05/16 04:37:08;;;;;;;11.60;8.18;;;14.40;99.90;;;;;;5059735;28;20620;-68
2021/05/16 04:39:34;;;;;;;10.23;8.13;;;14.30;99.90;;;;;;5063398;28;20043;-68
2021/05/16 04:41:59;;;;;;;10.27;8.38;;;14.40;99.90;;;;;;5062624;28;20052;-68
2021/05/16 04:44:28;;;;;;;11.63;8.35;;;14.30;99.90;;;;;;5066591;28;20100;-68
2021/05/16 04:46:54;;;;;;;8.25;7.38;;;14.30;99.90;;;;;;5064587;28;20048;-67
2021/05/16 04:49:19;;;;;;;10.93;7.28;;;14.40;99.90;;;;;;5066764;28;20056;-68
2021/05/16 04:51:45;;;;;;;10.70;7.78;;;14.50;99.90;;;;;;5072344;28;20032;-67
2021/05/16 04:54:10;;;;;;;10.73;8.07;;;14.50;99.90;;;;;;5067444;28;20048;-67
2021/05/16 04:56:36;;;;;;;11.82;8.05;;;14.40;99.90;;;;;;5062108;28;20032;-68
2021/05/16 04:59:02;;;;;;;9.90;7.60;;;14.50;99.90;;;;;;5068496;28;20086;-68
2021/05/16 05:01:29;;;;;;;9.52;7.40;;;14.50;99.90;;;;;;5052444;28;20028;-67
2021/05/16 05:03:55;;;;;;;11.90;8.27;;;14.50;99.90;;;;;;5069805;28;20028;-67
2021/05/16 05:06:22;;;;;;;10.65;8.20;;;14.40;99.90;;;;;;5061559;28;20064;-67
2021/05/16 05:08:48;;;;;;;14.48;8.98;;;14.40;99.90;;;;;;5069810;28;20021;-67
2021/05/16 05:11:14;;;;;;;15.57;8.25;;;14.40;99.90;;;;;;5060831;28;20021;-67
2021/05/16 05:13:39;;;;;;;9.98;8.52;;;14.40;99.90;;;;;;5053758;28;20036;-68
2021/05/16 05:16:05;;;;;;;11.68;8.18;;;14.40;99.90;;;;;;5067948;28;20505;-67
2021/05/16 05:18:32;;;;;;;7.90;7.28;;;14.50;99.90;;;;;;5070101;28;20036;-67
2021/05/16 05:20:59;;;;;;;11.40;8.13;;;14.50;99.90;;;;;;5062464;28;20018;-68
2021/05/16 05:23:27;;;;;;;12.35;8.23;;;14.50;99.90;;;;;;5058843;28;20035;-68
2021/05/16 05:25:54;;;;;;;12.30;8.00;;;14.50;99.90;;;;;;5067109;28;20039;-68
2021/05/16 05:28:20;;;;;;;13.85;7.82;;;14.50;99.90;;;;;;5070347;28;20031;-69
2021/05/16 05:30:46;;;;;;;9.85;7.93;;;14.50;99.90;;;;;;5062024;28;20033;-69
2021/05/16 05:33:12;;;;;;;8.40;7.57;;;14.50;99.90;;;;;;5071585;28;20025;-70
2021/05/16 05:35:37;;;;;;;12.68;7.57;;;14.60;99.90;;;;;;5062981;28;20420;-69
2021/05/16 05:38:03;;;;;;;11.25;6.55;;;14.70;99.90;;;;;;5051436;28;20044;-69
2021/05/16 05:40:29;;;;;;;8.88;7.13;;;14.80;99.90;;;;;;5068974;28;20101;-71
2021/05/16 05:42:54;;;;;;;17.10;8.43;;;14.70;99.90;;;;;;5071368;28;20039;-69
2021/05/16 05:45:20;;;;;;;11.13;7.75;;;14.60;99.90;;;;;;5067717;28;20027;-69
2021/05/16 05:47:45;;;;;;;11.73;8.20;;;14.60;99.90;;;;;;5068100;28;20036;-69
2021/05/16 05:50:11;;;;;;;12.60;7.82;;;14.60;99.90;;;;;;5068459;28;20028;-70
2021/05/16 05:52:38;;;;;;;11.63;8.38;;;14.60;99.90;;;;;;5070823;28;20032;-70
2021/05/16 05:55:04;;;;;;;11.98;8.88;;;14.80;99.90;;;;;;5062350;28;20103;-70
2021/05/16 05:57:30;;;;;;;10.40;8.50;;;14.70;99.90;;;;;;5069852;28;20099;-69
2021/05/16 05:59:55;;;;;;;14.85;8.63;;;14.80;99.90;;;;;;5066776;28;20036;-70
2021/05/16 06:02:21;;;;;;;14.38;8.55;;;14.80;99.90;;;;;;5071361;28;20096;-73
2021/05/16 06:04:47;;;;;;;10.82;8.52;;;14.80;99.90;;;;;;5065934;28;20037;-72
2021/05/16 06:07:12;;;;;;;13.15;8.15;;;14.70;99.90;;;;;;5065245;28;20400;-73
2021/05/16 06:09:38;;;;;;;9.40;8.25;;;14.70;99.90;;;;;;5068646;28;20032;-70
2021/05/16 06:12:06;;;;;;;13.98;8.23;;;14.80;99.90;;;;;;5065869;28;20028;-74
2021/05/16 06:14:35;;;;;;;12.68;8.85;;;14.80;99.90;;;;;;5066039;28;20515;-72
2021/05/16 06:17:01;;;;;;;8.15;7.45;;;14.80;99.90;;;;;;5062785;28;20039;-72
2021/05/16 06:19:27;;;;;;;8.95;8.15;;;14.90;99.90;;;;;;5067995;28;20045;-73
2021/05/16 06:21:53;;;;;;;8.57;7.68;;;15.00;99.90;;;;;;5069566;28;20027;-73
2021/05/16 06:24:19;;;;;;;8.80;7.90;;;15.00;99.90;;;;;;5067221;28;20028;-71
2021/05/16 06:26:46;;;;;;;7.47;6.70;;;15.10;99.90;;;;;;5063469;28;20031;-68
2021/05/16 06:29:13;;;;;;;12.32;7.43;;;15.10;99.90;;;;;;5066559;28;20028;-68
2021/05/16 06:31:40;;;;;;;10.30;7.35;;;15.20;99.90;;;;;;5070412;28;20129;-68
2021/05/16 06:34:07;;;;;;;8.23;7.43;;;15.10;99.90;;;;;;5068127;28;20023;-68
2021/05/16 06:36:33;;;;;;;9.80;7.20;;;15.10;99.90;;;;;;5062196;28;20048;-68
2021/05/16 06:38:59;;;;;;;10.32;9.23;;;15.10;99.90;;;;;;5066723;28;20040;-68
2021/05/16 06:41:24;;;;;;;14.57;8.35;;;15.10;99.90;;;;;;5069073;28;20021;-68
2021/05/16 06:43:51;;;;;;;10.48;8.00;;;15.10;99.90;;;;;;5067932;28;20040;-68
2021/05/16 06:46:17;;;;;;;9.23;7.88;;;15.20;99.90;;;;;;5066272;28;20081;-68
2021/05/16 06:48:43;;;;;;;8.82;7.85;;;15.20;99.90;;;;;;5050556;28;20120;-68
2021/05/16 06:51:09;;;;;;;9.43;7.85;;;15.20;99.90;;;;;;5067666;28;20060;-68
2021/05/16 06:53:35;;;;;;;8.30;7.60;;;15.20;99.90;;;;;;5068467;28;20035;-67
2021/05/16 06:56:01;;;;;;;10.48;7.47;;;15.40;99.90;;;;;;5067060;28;20013;-67
2021/05/16 06:58:27;;;;;;;13.45;8.85;;;15.30;99.90;;;;;;5066509;28;20102;-67
2021/05/16 07:00:53;;;;;;;8.73;7.30;;;15.30;99.90;;;;;;5066462;28;20020;-68
2021/05/16 07:03:19;;;;;;;9.18;7.57;;;15.40;99.90;;;;;;5067779;28;20474;-67
2021/05/16 07:05:45;;;;;;;7.75;7.00;;;15.40;99.90;;;;;;5064172;28;20307;-67
2021/05/16 07:08:10;;;;;;;9.10;7.03;;;15.50;99.90;;;;;;5067168;28;20612;-68
2021/05/16 07:10:36;;;;;;;7.60;6.90;;;15.50;99.90;;;;;;5062797;28;20021;-68
2021/05/16 07:13:02;;;;;;;9.40;7.07;;;15.70;99.90;;;;;;5068283;28;20238;-68
2021/05/16 07:15:28;;;;;;;8.27;7.50;;;15.70;99.90;;;;;;5063109;28;20035;-67
2021/05/16 07:17:54;;;;;;;11.93;8.20;;;15.80;99.90;;;;;;5068290;28;20051;-68
2021/05/16 07:20:20;;;;;;;8.63;7.20;;;15.80;99.90;;;;;;5063444;28;20025;-68
2021/05/16 07:22:45;;;;;;;7.70;6.95;;;15.70;99.90;;;;;;5067349;28;20028;-68
2021/05/16 07:25:12;;;;;;;7.20;6.68;;;15.80;99.90;;;;;;5049823;28;20111;-68
2021/05/16 07:27:38;;;;;;;8.13;6.90;;;15.80;99.90;;;;;;5069061;28;20059;-68
2021/05/16 07:30:05;;;;;;;14.55;8.27;;;15.80;99.90;;;;;;5065977;28;20489;-68
2021/05/16 07:32:31;;;;;;;8.43;7.57;;;15.90;99.90;;;;;;5049329;28;20598;-68
2021/05/16 07:34:56;;;;;;;11.95;8.02;;;15.80;99.90;;;;;;5064197;28;20024;-68
2021/05/16 07:37:22;;;;;;;14.35;9.30;;;15.80;99.90;;;;;;5068297;28;20473;-68
2021/05/16 07:39:48;;;;;;;13.68;8.32;;;16.00;99.90;;;;;;5066067;28;20633;-68
2021/05/16 07:42:14;;;;;;;12.20;9.38;;;16.00;99.90;;;;;;5067821;28;20031;-68
2021/05/16 07:44:39;;;;;;;12.32;9.95;;;16.10;99.90;;;;;;5067147;28;20429;-68
2021/05/16 07:47:07;;;;;;;10.75;9.63;;;16.00;99.90;;;;;;5068839;28;20070;-68
2021/05/16 07:49:33;;;;;;;11.70;10.50;;;16.00;99.90;;;;;;5061162;28;20420;-67
2021/05/16 07:51:59;;;;;;;16.20;10.10;;;16.00;99.90;;;;;;5067047;28;20021;-68
2021/05/16 07:54:24;;;;;;;15.52;10.52;;;15.90;99.90;;;;;;5063236;28;20029;-67
2021/05/16 07:56:50;;;;;;;11.68;10.52;;;15.90;99.90;;;;;;5062481;28;20025;-67
2021/05/16 07:59:16;;;;;;;14.30;11.40;;;16.00;99.90;;;;;;5057533;28;20681;-68
2021/05/16 08:01:41;;;;;;;13.88;11.90;;;16.10;99.90;;;;;;5068842;28;20036;-68
2021/05/16 08:04:07;;;;;;;13.77;11.82;;;16.10;99.90;;;;;;5063454;28;20051;-67
2021/05/16 08:06:32;;;;;;;14.85;12.32;;;16.10;99.90;;;;;;5066354;28;20505;-68
2021/05/16 08:08:58;;;;;;;16.75;11.35;;;16.20;99.90;;;;;;5059416;28;20473;-67
2021/05/16 08:11:24;;;;;;;13.73;12.15;;;16.10;99.90;;;;;;5063273;28;20037;-67
2021/05/16 08:13:51;;;;;;;14.52;11.77;;;16.20;99.90;;;;;;5067033;28;20090;-68
2021/05/16 08:16:16;;;;;;;11.48;10.32;;;16.20;99.90;;;;;;5066215;28;20059;-67
2021/05/16 08:18:42;;;;;;;12.38;9.02;;;16.20;99.90;;;;;;5066651;28;20149;-68
2021/05/16 08:21:08;;;;;;;10.35;8.57;;;16.20;99.90;;;;;;5071923;28;20124;-67
2021/05/16 08:23:33;;;;;;;9.50;7.20;;;16.30;99.90;;;;;;5071954;28;20036;-67
2021/05/16 08:26:01;;;;;;;7.32;6.68;;;16.20;99.90;;;;;;5064391;28;20717;-71
2021/05/16 08:28:26;;;;;;;5.93;4.68;;;16.30;99.90;;;;;;5064882;28;20032;-71
2021/05/16 08:30:52;;;;;;;5.82;4.30;;;16.30;99.90;;;;;;5068996;28;20032;-69
2021/05/16 08:33:18;;;;;;;5.10;4.70;;;16.20;99.90;;;;;;5077614;28;20032;-68
2021/05/16 08:35:47;;;;;;;5.32;3.72;;;16.20;99.90;;;;;;5066641;28;20086;-69
2021/05/16 08:38:13;;;;;;;6.20;3.58;;;16.30;99.90;;;;;;5046499;28;20029;-69
2021/05/16 08:40:39;;;;;;;4.25;3.80;;;16.30;99.90;;;;;;5069282;28;20048;-70
2021/05/16 08:43:05;;;;;;;4.43;3.75;;;16.40;99.90;;;;;;5053479;28;20025;-68
2021/05/16 08:45:32;;;;;;;4.78;3.00;;;16.50;99.90;;;;;;5064453;28;20028;-69
2021/05/16 08:47:59;;;;;;;4.13;3.15;;;16.30;99.90;;;;;;5053379;28;20029;-68
2021/05/16 08:50:26;;;;;;;3.25;2.97;;;16.30;99.90;;;;;;5064274;28;20067;-68
2021/05/16 08:52:51;;;;;;;2.72;2.22;;;16.50;99.90;;;;;;5052829;28;20029;-69
2021/05/16 08:55:17;;;;;;;3.00;2.80;;;16.30;99.90;;;;;;5067012;28;20028;-67
2021/05/16 08:57:44;;;;;;;3.83;2.90;;;16.50;99.90;;;;;;5071416;28;20505;-67
2021/05/16 09:00:21;;;;;;;2.55;2.17;;;16.40;99.90;;;;;;5079319;28;20035;-67
2021/05/16 09:03:16;;;;;;;9.63;8.95;;;16.40;99.90;;;;;;5069967;28;20024;-67
2021/05/16 09:05:47;;;;;;;4.65;1.40;;;16.30;99.90;;;;;;5065121;28;20047;-67
2021/05/16 09:08:22;;;;;;;1.40;1.15;;;16.40;99.90;;;;;;5053196;28;20023;-67
2021/05/16 09:11:00;;;;;;;5.63;5.20;;;16.40;99.90;;;;;;5075587;28;20073;-68
2021/05/16 09:13:31;;;;;;;2.53;1.60;;;16.50;99.90;;;;;;5074808;28;20024;-67
2021/05/16 09:16:17;;;;;;;1.00;0.90;;;16.50;99.90;;;;;;5073423;28;20590;-67
2021/05/16 09:18:51;;;;;;;2.53;0.93;;;16.30;99.90;;;;;;5070737;28;20044;-67
2021/05/16 09:21:30;;;;;;;1.00;0.80;;;16.30;99.90;;;;;;5064204;28;20024;-66
2021/05/16 09:24:02;;;;;;;0.93;0.73;;;16.30;99.90;;;;;;5069238;28;20633;-67
2021/05/16 09:26:29;;;;;;;0.95;0.88;;;16.30;99.90;;;;;;5068892;28;20031;-67
2021/05/16 09:28:55;;;;;;;1.50;0.80;;;16.30;99.90;;;;;;5067870;28;20401;-67
2021/05/16 09:31:35;;;;;;;4.70;0.80;;;16.20;99.90;;;;;;5068292;28;20037;-67
2021/05/16 09:34:02;;;;;;;0.80;0.80;;;16.30;99.90;;;;;;5067329;28;20478;-67
2021/05/16 09:36:40;;;;;;;0.80;0.80;;;16.30;99.90;;;;;;5059602;28;20437;-68
2021/05/16 09:39:20;;;;;;;1.25;0.68;;;16.30;99.90;;;;;;5063556;28;20116;-67
2021/05/16 09:41:54;;;;;;;1.13;0.93;;;16.30;99.90;;;;;;5069334;28;20611;-68
2021/05/16 09:44:31;;;;;;;0.70;0.70;;;16.20;99.90;;;;;;5062441;28;20029;-67
2021/05/16 09:47:18;;;;;;;1.02;0.93;;;16.30;99.90;;;;;;5067960;28;20108;-67
2021/05/16 09:50:04;;;;;;;1.20;0.57;;;16.30;99.90;;;;;;5062972;28;20455;-67
2021/05/16 09:52:31;;;;;;;4.55;0.88;;;16.20;99.90;;;;;;5065099;28;20504;-68
2021/05/16 09:55:02;;;;;;;0.98;0.75;;;16.30;99.90;;;;;;5067238;28;20107;-68
2021/05/16 09:57:33;;;;;;;2.65;1.00;;;16.30;99.90;;;;;;5070089;28;20024;-67
2021/05/16 09:59:59;;;;;;;1.20;0.85;;;16.20;99.90;;;;;;5065298;28;20090;-67
2021/05/16 10:02:27;;;;;;;1.42;0.80;;;16.10;99.90;;;;;;5069971;28;20070;-68
2021/05/16 10:04:59;;;;;;;1.13;1.02;;;16.20;99.90;;;;;;5066202;28;20113;-67
2021/05/16 10:07:25;;;;;;;1.75;0.90;;;16.20;99.90;;;;;;5067545;28;20021;-67
2021/05/16 10:09:52;;;;;;;1.67;0.60;;;16.20;99.90;;;;;;5048347;28;20036;-67
2021/05/16 10:12:19;;;;;;;0.88;0.60;;;16.10;99.90;;;;;;5067962;28;20021;-67
2021/05/16 10:14:48;;;;;;;3.45;0.60;;;16.20;99.90;;;;;;5067521;28;20028;-68
2021/05/16 10:17:15;;;;;;;1.10;0.77;;;16.30;99.90;;;;;;5069965;28;20029;-67
2021/05/16 10:19:43;;;;;;;1.58;0.82;;;16.40;99.90;;;;;;5068323;28;20041;-67
2021/05/16 10:22:18;;;;;;;1.27;0.68;;;16.40;99.90;;;;;;5051147;28;20357;-67
2021/05/16 10:24:50;;;;;;;0.90;0.90;;;16.30;99.90;;;;;;5066200;28;20504;-66
2021/05/16 10:27:26;;;;;;;0.70;0.70;;;16.40;99.90;;;;;;5069382;28;20017;-67
2021/05/16 10:30:05;;;;;;;1.38;0.80;;;16.50;99.90;;;;;;5068177;28;20036;-67
2021/05/16 10:32:37;;;;;;;2.35;1.00;;;16.30;99.90;;;;;;5069155;28;20112;-68
2021/05/16 10:35:05;;;;;;;1.88;1.30;;;16.30;99.90;;;;;;5050786;28;20032;-68
2021/05/16 10:37:56;;;;;;;0.70;0.70;;;16.40;99.90;;;;;;5069316;28;20435;-67
2021/05/16 10:40:36;;;;;;;0.70;0.70;;;16.20;99.90;;;;;;5063015;28;20095;-68
2021/05/16 10:43:25;;;;;;;0.75;0.75;;;16.00;99.90;;;;;;5065565;28;20588;-68
2021/05/16 10:45:51;;;;;;;1.63;0.85;;;16.20;99.90;;;;;;5051533;28;20039;-67
2021/05/16 10:48:19;;;;;;;1.35;0.98;;;16.20;99.90;;;;;;5070508;28;20021;-67
2021/05/16 10:50:54;;;;;;;4.03;1.25;;;16.10;99.90;;;;;;5064764;28;20128;-68
2021/05/16 10:53:22;;;;;;;0.93;0.90;;;16.30;99.90;;;;;;5071574;28;20038;-67
2021/05/16 10:55:51;;;;;;;0.73;0.70;;;16.30;99.90;;;;;;5062956;28;20012;-67
2021/05/16 10:58:31;;;;;;;1.02;0.75;;;16.30;99.90;;;;;;5069255;28;20040;-67
2021/05/16 11:01:01;;;;;;;2.10;1.02;;;16.30;99.90;;;;;;5050071;28;20060;-67
2021/05/16 11:03:53;;;;;;;0.85;0.80;;;16.20;99.90;;;;;;5050932;28;20032;-67
2021/05/16 11:06:21;;;;;;;3.60;0.65;;;16.30;99.90;;;;;;5064735;28;20020;-67
2021/05/16 11:08:50;;;;;;;2.80;0.32;;;16.20;99.90;;;;;;5078677;28;20031;-67
2021/05/16 11:11:36;;;;;;;2.15;0.50;;;16.00;99.90;;;;;;5062286;28;20027;-68
2021/05/16 11:14:24;;;;;;;1.45;0.30;;;16.00;99.90;;;;;;5053260;28;20639;-68
2021/05/16 11:17:01;;;;;;;1.98;0.40;;;15.90;99.90;;;;;;5064667;28;20634;-69
2021/05/16 11:19:32;;;;;;;1.08;0.50;;;15.80;99.90;;;;;;5066188;28;20104;-68
2021/05/16 11:22:12;;;;;;;2.20;0.57;;;15.80;99.90;;;;;;5060275;28;20032;-68
2021/05/16 11:24:40;;;;;;;2.05;0.63;;;15.80;99.90;;;;;;5066993;28;20559;-68
2021/05/16 11:27:18;;;;;;;1.05;0.70;;;15.90;99.90;;;;;;5069107;28;20016;-68
2021/05/16 11:29:45;;;;;;;0.40;0.30;;;16.00;99.90;;;;;;5066715;28;20031;-67
2021/05/16 11:32:11;;;;;;;0.65;0.50;;;15.90;99.90;;;;;;5069971;28;20071;-69
2021/05/16 11:34:36;;;;;;;2.08;0.60;;;15.80;99.90;;;;;;5064514;28;20032;-68
2021/05/16 11:37:19;;;;;;;3.90;0.70;;;15.90;99.90;;;;;;5070304;28;20052;-69
2021/05/16 11:39:45;;;;;;;3.03;0.70;;;15.80;99.90;;;;;;5050026;28;20036;-68
2021/05/16 11:42:11;;;;;;;2.65;0.82;;;15.70;99.90;;;;;;5068911;28;20021;-68
2021/05/16 11:44:36;;;;;;;0.30;0.30;;;15.80;99.90;;;;;;5071864;28;20549;-68
2021/05/16 11:47:02;;;;;;;0.95;0.57;;;15.60;99.90;;;;;;5065306;28;20386;-68
2021/05/16 11:49:31;;;;;;;6.70;0.50;;;15.60;99.90;;;;;;5068129;28;20504;-68
2021/05/16 11:51:59;;;;;;;4.95;0.60;;;15.80;99.90;;;;;;5068168;28;20091;-67
2021/05/16 11:54:32;;;;;;;2.15;0.40;;;15.70;99.90;;;;;;5061670;28;20031;-67
2021/05/16 11:56:58;;;;;;;7.30;0.45;;;15.70;99.90;;;;;;5065967;28;20051;-67
2021/05/16 11:59:30;;;;;;;3.78;0.60;;;15.60;99.90;;;;;;5066972;28;20060;-68
2021/05/16 12:02:01;;;;;;;0.40;0.40;;;15.60;99.90;;;;;;5072987;28;20111;-67
2021/05/16 12:04:38;;;;;;;1.45;0.30;;;15.60;99.90;;;;;;5065835;28;20429;-67
2021/05/16 12:07:04;;;;;;;0.38;0.22;;;15.40;99.90;;;;;;5072730;28;20095;-67
2021/05/16 12:09:36;;;;;;;0.63;0.30;;;15.60;99.90;;;;;;5064559;28;20017;-67
2021/05/16 12:12:02;;;;;;;2.15;0.30;;;15.50;99.90;;;;;;5063956;28;20385;-68
2021/05/16 12:14:30;;;;;;;2.22;0.30;;;15.70;99.90;;;;;;5066362;28;20020;-68
2021/05/16 12:17:01;;;;;;;0.70;0.30;;;15.80;99.90;;;;;;5065026;28;20031;-68
2021/05/16 12:19:32;;;;;;;2.83;0.32;;;15.70;99.90;;;;;;5045228;28;20036;-69
2021/05/16 12:22:02;;;;;;;3.63;0.50;;;15.80;99.90;;;;;;5067124;28;20075;-68
2021/05/16 12:24:34;;;;;;;3.05;0.40;;;15.80;99.90;;;;;;5065812;28;20093;-68
2021/05/16 12:27:00;;;;;;;0.40;0.30;;;16.00;99.90;;;;;;5061829;28;20510;-69
2021/05/16 12:29:27;;;;;;;0.70;0.32;;;15.80;99.90;;;;;;5062012;28;20029;-69
2021/05/16 12:31:53;;;;;;;0.20;0.20;;;15.70;99.90;;;;;;5063800;28;20021;-68
2021/05/16 12:34:26;;;;;;;1.90;0.30;;;15.80;99.90;;;;;;5065316;28;20646;-69
2021/05/16 12:37:02;;;;;;;2.72;0.40;;;15.80;99.90;;;;;;5064979;28;20041;-69
2021/05/16 12:39:38;;;;;;;2.15;0.40;;;16.00;99.90;;;;;;5063532;28;20070;-70
2021/05/16 12:42:22;;;;;;;0.40;0.30;;;15.80;99.90;;;;;;5066945;28;20086;-70
2021/05/16 12:44:48;;;;;;;1.73;0.60;;;15.80;99.90;;;;;;5061377;28;20649;-71
2021/05/16 12:47:30;;;;;;;2.22;0.50;;;15.80;99.90;;;;;;5064656;28;20037;-71
2021/05/16 12:50:07;;;;;;;1.20;0.35;;;15.50;99.90;;;;;;5064991;28;20032;-72